sensor_id;sensor_type;location;lat;lon;timestamp;pressure;altitude;pressure_sealevel;temperature;humidity
14293;BME280;62290;59.420;17.842;2022-09-09T00:02:01;102038.03;;;21.90;36.17
14293;BME280;62290;59.420;17.842;2022-09-09T00:04:32;102035.63;;;21.86;36.20
14293;BME280;62290;59.420;17.842;2022-09-09T00:07:05;102047.56;;;21.96;36.13
14293;BME280;62290;59.420;17.842;2022-09-09T00:09:44;102045.03;;;21.93;36.42
14293;BME280;62290;59.420;17.842;2022-09-09T00:12:20;102049.66;;;21.91;36.53
14293;BME280;62290;59.420;17.842;2022-09-09T00:14:51;102047.94;;;21.90;36.61
14293;BME280;62290;59.420;17.842;2022-09-09T00:17:32;102047.84;;;21.91;36.17
14293;BME280;62290;59.420;17.842;2022-09-09T00:20:09;102047.94;;;21.90;36.68
14293;BME280;62290;59.420;17.842;2022-09-09T00:22:43;102043.63;;;21.87;36.57
14293;BME280;62290;59.420;17.842;2022-09-09T00:25:21;102048.88;;;21.89;36.24
14293;BME280;62290;59.420;17.842;2022-09-09T00:27:51;102042.75;;;21.87;36.23
14293;BME280;62290;59.420;17.842;2022-09-09T00:30:20;102047.25;;;21.86;36.53
14293;BME280;62290;59.420;17.842;2022-09-09T00:32:50;102048.16;;;21.85;36.60
14293;BME280;62290;59.420;17.842;2022-09-09T00:35:23;102032.03;;;21.85;36.36
14293;BME280;62290;59.420;17.842;2022-09-09T00:37:54;102039.19;;;21.86;36.57
14293;BME280;62290;59.420;17.842;2022-09-09T00:40:29;102035.63;;;21.86;36.47
14293;BME280;62290;59.420;17.842;2022-09-09T00:43:19;102024.81;;;21.87;36.59
14293;BME280;62290;59.420;17.842;2022-09-09T00:46:08;102027.41;;;21.89;36.12
14293;BME280;62290;59.420;17.842;2022-09-09T00:48:51;102037.19;;;21.90;36.32
14293;BME280;62290;59.420;17.842;2022-09-09T00:51:28;102030.84;;;21.91;36.17
14293;BME280;62290;59.420;17.842;2022-09-09T00:54:24;102029.16;;;21.90;36.54
14293;BME280;62290;59.420;17.842;2022-09-09T00:57:07;102028.16;;;21.91;36.55
14293;BME280;62290;59.420;17.842;2022-09-09T00:59:47;102023.66;;;21.91;36.30
14293;BME280;62290;59.420;17.842;2022-09-09T01:02:26;102038.84;;;21.92;36.44
14293;BME280;62290;59.420;17.842;2022-09-09T01:05:02;102026.34;;;21.91;36.56
14293;BME280;62290;59.420;17.842;2022-09-09T01:07:32;102022.03;;;21.89;36.52
14293;BME280;62290;59.420;17.842;2022-09-09T01:10:04;102020.13;;;21.91;36.59
14293;BME280;62290;59.420;17.842;2022-09-09T01:12:39;102027.13;;;21.93;36.53
14293;BME280;62290;59.420;17.842;2022-09-09T01:15:12;102011.47;;;21.86;36.37
14293;BME280;62290;59.420;17.842;2022-09-09T01:17:53;102017.25;;;21.94;36.56
14293;BME280;62290;59.420;17.842;2022-09-09T01:20:26;102008.44;;;21.92;36.58
14293;BME280;62290;59.420;17.842;2022-09-09T01:23:11;102016.09;;;21.98;36.64
14293;BME280;62290;59.420;17.842;2022-09-09T01:26:20;102017.66;;;22.02;36.72
14293;BME280;62290;59.420;17.842;2022-09-09T01:28:51;101988.19;;;21.86;36.34
14293;BME280;62290;59.420;17.842;2022-09-09T01:31:27;102011.13;;;22.06;36.66
14293;BME280;62290;59.420;17.842;2022-09-09T01:33:56;102006.56;;;22.08;36.56
14293;BME280;62290;59.420;17.842;2022-09-09T01:36:29;102010.88;;;22.10;36.27
14293;BME280;62290;59.420;17.842;2022-09-09T01:39:00;102000.97;;;22.11;36.28
14293;BME280;62290;59.420;17.842;2022-09-09T01:41:29;102005.41;;;22.12;36.50
14293;BME280;62290;59.420;17.842;2022-09-09T01:44:08;101999.16;;;22.11;36.35
14293;BME280;62290;59.420;17.842;2022-09-09T01:46:39;101994.66;;;22.12;36.48
14293;BME280;62290;59.420;17.842;2022-09-09T01:49:14;101991.03;;;22.13;36.32
14293;BME280;62290;59.420;17.842;2022-09-09T01:51:43;101960.78;;;21.95;35.92
14293;BME280;62290;59.420;17.842;2022-09-09T01:54:13;101990.16;;;22.12;36.12
14293;BME280;62290;59.420;17.842;2022-09-09T01:56:49;101993.63;;;22.14;36.24
14293;BME280;62290;59.420;17.842;2022-09-09T01:59:25;101998.13;;;22.14;36.15
14293;BME280;62290;59.420;17.842;2022-09-09T02:02:07;101998.13;;;22.14;36.12
14293;BME280;62290;59.420;17.842;2022-09-09T02:04:41;101991.88;;;22.13;35.66
14293;BME280;62290;59.420;17.842;2022-09-09T02:07:31;101984.78;;;22.12;35.80
14293;BME280;62290;59.420;17.842;2022-09-09T02:10:10;101990.16;;;22.12;35.82
14293;BME280;62290;59.420;17.842;2022-09-09T02:12:50;101982.19;;;22.11;35.97
14293;BME280;62290;59.420;17.842;2022-09-09T02:15:22;101978.75;;;22.09;35.54
14293;BME280;62290;59.420;17.842;2022-09-09T02:17:52;101974.25;;;22.09;35.84
14293;BME280;62290;59.420;17.842;2022-09-09T02:20:21;101972.41;;;22.10;35.76
14293;BME280;62290;59.420;17.842;2022-09-09T02:22:55;101977.88;;;22.08;35.68
14293;BME280;62290;59.420;17.842;2022-09-09T02:25:26;101970.69;;;22.09;35.85
14293;BME280;62290;59.420;17.842;2022-09-09T02:28:06;101967.13;;;22.08;35.62
14293;BME280;62290;59.420;17.842;2022-09-09T02:30:37;101960.91;;;22.08;35.47
14293;BME280;62290;59.420;17.842;2022-09-09T02:33:09;101962.63;;;22.09;35.78
14293;BME280;62290;59.420;17.842;2022-09-09T02:35:46;101969.81;;;22.08;35.64
14293;BME280;62290;59.420;17.842;2022-09-09T02:38:19;101966.06;;;22.11;35.48
14293;BME280;62290;59.420;17.842;2022-09-09T02:40:56;101961.69;;;22.10;35.46
14293;BME280;62290;59.420;17.842;2022-09-09T02:43:31;101965.13;;;22.12;35.32
14293;BME280;62290;59.420;17.842;2022-09-09T02:46:03;101962.44;;;22.12;35.59
14293;BME280;62290;59.420;17.842;2022-09-09T02:48:41;101959.75;;;22.12;35.58
14293;BME280;62290;59.420;17.842;2022-09-09T02:51:23;101958.81;;;22.13;35.30
14293;BME280;62290;59.420;17.842;2022-09-09T02:54:05;101955.91;;;22.16;35.43
14293;BME280;62290;59.420;17.842;2022-09-09T02:56:40;101959.47;;;22.17;35.23
14293;BME280;62290;59.420;17.842;2022-09-09T02:59:12;101948.66;;;22.18;35.50
14293;BME280;62290;59.420;17.842;2022-09-09T03:01:40;101950.34;;;22.19;35.35
14293;BME280;62290;59.420;17.842;2022-09-09T03:04:09;101943.16;;;22.20;35.24
14293;BME280;62290;59.420;17.842;2022-09-09T03:06:38;101941.34;;;22.20;35.61
14293;BME280;62290;59.420;17.842;2022-09-09T03:09:15;101943.09;;;22.21;35.35
14293;BME280;62290;59.420;17.842;2022-09-09T03:11:43;101937.72;;;22.21;35.63
14293;BME280;62290;59.420;17.842;2022-09-09T03:14:15;101935.81;;;22.23;35.52
14293;BME280;62290;59.420;17.842;2022-09-09T03:16:43;101932.25;;;22.23;35.16
14293;BME280;62290;59.420;17.842;2022-09-09T03:19:11;101938.47;;;22.23;35.32
14293;BME280;62290;59.420;17.842;2022-09-09T03:21:40;101935.22;;;22.18;35.52
14293;BME280;62290;59.420;17.842;2022-09-09T03:24:08;101933.13;;;22.23;35.53
14293;BME280;62290;59.420;17.842;2022-09-09T03:26:36;101926.88;;;22.23;35.39
14293;BME280;62290;59.420;17.842;2022-09-09T03:29:08;101921.50;;;22.23;35.75
14293;BME280;62290;59.420;17.842;2022-09-09T03:31:38;101916.44;;;22.18;35.44
14293;BME280;62290;59.420;17.842;2022-09-09T03:34:06;101924.06;;;22.24;35.69
14293;BME280;62290;59.420;17.842;2022-09-09T03:36:36;101917.94;;;22.22;35.68
14293;BME280;62290;59.420;17.842;2022-09-09T03:39:04;101906.34;;;22.22;35.43
14293;BME280;62290;59.420;17.842;2022-09-09T03:41:32;101912.56;;;22.22;35.55
14293;BME280;62290;59.420;17.842;2022-09-09T03:44:02;101909.03;;;22.22;35.85
14293;BME280;62290;59.420;17.842;2022-09-09T03:46:35;101917.06;;;22.22;35.89
14293;BME280;62290;59.420;17.842;2022-09-09T03:49:06;101910.75;;;22.23;35.99
14293;BME280;62290;59.420;17.842;2022-09-09T03:51:34;101916.13;;;22.23;36.03
14293;BME280;62290;59.420;17.842;2022-09-09T03:54:04;101918.06;;;22.21;35.93
14293;BME280;62290;59.420;17.842;2022-09-09T03:56:36;101912.69;;;22.21;35.67
14293;BME280;62290;59.420;17.842;2022-09-09T03:59:04;101912.69;;;22.21;36.18
14293;BME280;62290;59.420;17.842;2022-09-09T04:01:32;101913.56;;;22.21;35.94
14293;BME280;62290;59.420;17.842;2022-09-09T04:04:00;101913.56;;;22.21;35.99
14293;BME280;62290;59.420;17.842;2022-09-09T04:06:30;101916.25;;;22.21;35.85
14293;BME280;62290;59.420;17.842;2022-09-09T04:08:58;101908.19;;;22.21;36.06
14293;BME280;62290;59.420;17.842;2022-09-09T04:11:26;101912.69;;;22.21;36.16
14293;BME280;62290;59.420;17.842;2022-09-09T04:13:56;101912.56;;;22.22;36.31
14293;BME280;62290;59.420;17.842;2022-09-09T04:16:24;101917.00;;;22.23;36.23
14293;BME280;62290;59.420;17.842;2022-09-09T04:18:52;101918.63;;;22.26;36.20
14293;BME280;62290;59.420;17.842;2022-09-09T04:21:20;101905.19;;;22.26;36.04
14293;BME280;62290;59.420;17.842;2022-09-09T04:23:51;101914.03;;;22.28;36.11
14293;BME280;62290;59.420;17.842;2022-09-09T04:26:19;101905.97;;;22.28;36.06
14293;BME280;62290;59.420;17.842;2022-09-09T04:28:47;101904.16;;;22.28;35.97
14293;BME280;62290;59.420;17.842;2022-09-09T04:31:19;101899.63;;;22.29;36.21
14293;BME280;62290;59.420;17.842;2022-09-09T04:33:52;101906.81;;;22.28;36.42
14293;BME280;62290;59.420;17.842;2022-09-09T04:36:21;101903.16;;;22.29;36.21
14293;BME280;62290;59.420;17.842;2022-09-09T04:38:55;101904.03;;;22.30;36.29
14293;BME280;62290;59.420;17.842;2022-09-09T04:41:23;101905.00;;;22.29;36.53
14293;BME280;62290;59.420;17.842;2022-09-09T04:43:54;101897.78;;;22.29;36.24
14293;BME280;62290;59.420;17.842;2022-09-09T04:46:22;101900.47;;;22.29;36.57
14293;BME280;62290;59.420;17.842;2022-09-09T04:48:51;101906.72;;;22.30;36.55
14293;BME280;62290;59.420;17.842;2022-09-09T04:51:22;101887.66;;;22.20;36.41
14293;BME280;62290;59.420;17.842;2022-09-09T04:53:51;101911.22;;;22.29;36.39
14293;BME280;62290;59.420;17.842;2022-09-09T04:56:22;101906.72;;;22.30;36.75
14293;BME280;62290;59.420;17.842;2022-09-09T04:58:52;101900.13;;;22.21;36.74
14293;BME280;62290;59.420;17.842;2022-09-09T05:01:23;101888.78;;;22.16;36.44
14293;BME280;62290;59.420;17.842;2022-09-09T05:03:56;101912.38;;;22.25;36.69
14293;BME280;62290;59.420;17.842;2022-09-09T05:06:24;101907.88;;;22.26;37.02
14293;BME280;62290;59.420;17.842;2022-09-09T05:08:56;101908.84;;;22.25;36.82
14293;BME280;62290;59.420;17.842;2022-09-09T05:11:30;101906.16;;;22.25;36.83
14293;BME280;62290;59.420;17.842;2022-09-09T05:14:07;101906.25;;;22.23;37.01
14293;BME280;62290;59.420;17.842;2022-09-09T05:16:38;101906.25;;;22.23;36.83
14293;BME280;62290;59.420;17.842;2022-09-09T05:19:06;101890.81;;;22.12;36.96
14293;BME280;62290;59.420;17.842;2022-09-09T05:21:43;101909.03;;;22.22;37.15
14293;BME280;62290;59.420;17.842;2022-09-09T05:24:12;101904.53;;;22.22;37.18
14293;BME280;62290;59.420;17.842;2022-09-09T05:26:43;101914.31;;;22.23;37.20
14293;BME280;62290;59.420;17.842;2022-09-09T05:29:11;101912.56;;;22.22;37.01
14293;BME280;62290;59.420;17.842;2022-09-09T05:31:39;101915.25;;;22.22;37.08
14293;BME280;62290;59.420;17.842;2022-09-09T05:34:11;101911.63;;;22.23;37.31
14293;BME280;62290;59.420;17.842;2022-09-09T05:36:39;101918.72;;;22.24;37.05
14293;BME280;62290;59.420;17.842;2022-09-09T05:39:08;101920.56;;;22.24;37.12
14293;BME280;62290;59.420;17.842;2022-09-09T05:41:38;101917.00;;;22.23;37.36
14293;BME280;62290;59.420;17.842;2022-09-09T05:44:08;101915.06;;;22.25;37.37
14293;BME280;62290;59.420;17.842;2022-09-09T05:46:38;101921.38;;;22.24;37.31
14293;BME280;62290;59.420;17.842;2022-09-09T05:49:06;101924.00;;;22.26;37.45
14293;BME280;62290;59.420;17.842;2022-09-09T05:51:35;101923.88;;;22.27;37.45
14293;BME280;62290;59.420;17.842;2022-09-09T05:54:08;101916.31;;;22.20;37.76
14293;BME280;62290;59.420;17.842;2022-09-09T05:56:41;101894.38;;;22.13;37.20
14293;BME280;62290;59.420;17.842;2022-09-09T05:59:10;101926.28;;;22.32;37.39
14293;BME280;62290;59.420;17.842;2022-09-09T06:01:39;101926.28;;;22.32;37.45
14293;BME280;62290;59.420;17.842;2022-09-09T06:04:13;101926.19;;;22.33;37.42
14293;BME280;62290;59.420;17.842;2022-09-09T06:06:41;101916.31;;;22.34;37.16
14293;BME280;62290;59.420;17.842;2022-09-09T06:09:13;101916.31;;;22.34;36.87
14293;BME280;62290;59.420;17.842;2022-09-09T06:11:42;101914.50;;;22.34;36.69
14293;BME280;62290;59.420;17.842;2022-09-09T06:14:14;101912.09;;;22.30;36.15
14293;BME280;62290;59.420;17.842;2022-09-09T06:16:46;101920.63;;;22.36;35.97
14293;BME280;62290;59.420;17.842;2022-09-09T06:19:20;101927.81;;;22.36;35.92
14293;BME280;62290;59.420;17.842;2022-09-09T06:21:48;101924.09;;;22.38;35.34
14293;BME280;62290;59.420;17.842;2022-09-09T06:24:16;101920.53;;;22.38;35.27
14293;BME280;62290;59.420;17.842;2022-09-09T06:26:46;101923.31;;;22.36;35.05
14293;BME280;62290;59.420;17.842;2022-09-09T06:29:28;101916.91;;;22.39;34.75
14293;BME280;62290;59.420;17.842;2022-09-09T06:31:56;101921.28;;;22.40;34.86
14293;BME280;62290;59.420;17.842;2022-09-09T06:34:26;101919.47;;;22.40;34.69
14293;BME280;62290;59.420;17.842;2022-09-09T06:36:57;101924.84;;;22.40;34.40
14293;BME280;62290;59.420;17.842;2022-09-09T06:39:31;101922.06;;;22.42;34.19
14293;BME280;62290;59.420;17.842;2022-09-09T06:41:59;101920.03;;;22.45;33.80
14293;BME280;62290;59.420;17.842;2022-09-09T06:44:47;101921.84;;;22.45;33.98
14293;BME280;62290;59.420;17.842;2022-09-09T06:47:25;101917.34;;;22.45;33.70
14293;BME280;62290;59.420;17.842;2022-09-09T06:49:56;101914.59;;;22.47;33.43
14293;BME280;62290;59.420;17.842;2022-09-09T06:52:25;101919.84;;;22.48;33.57
14293;BME280;62290;59.420;17.842;2022-09-09T06:54:54;101917.16;;;22.48;33.55
14293;BME280;62290;59.420;17.842;2022-09-09T06:57:25;101918.91;;;22.49;33.37
14293;BME280;62290;59.420;17.842;2022-09-09T07:00:09;101920.53;;;22.52;33.31
14293;BME280;62290;59.420;17.842;2022-09-09T07:02:39;101921.28;;;22.54;33.52
14293;BME280;62290;59.420;17.842;2022-09-09T07:05:09;101926.53;;;22.55;33.25
14293;BME280;62290;59.420;17.842;2022-09-09T07:07:39;101929.03;;;22.58;33.04
14293;BME280;62290;59.420;17.842;2022-09-09T07:10:08;101932.59;;;22.59;32.96
14293;BME280;62290;59.420;17.842;2022-09-09T07:12:37;101904.50;;;22.50;33.13
14293;BME280;62290;59.420;17.842;2022-09-09T07:15:10;101919.69;;;22.65;33.02
14293;BME280;62290;59.420;17.842;2022-09-09T07:17:42;101928.38;;;22.69;33.36
14293;BME280;62290;59.420;17.842;2022-09-09T07:20:11;101919.88;;;22.62;33.02
14293;BME280;62290;59.420;17.842;2022-09-09T07:22:39;101928.06;;;22.73;33.15
14293;BME280;62290;59.420;17.842;2022-09-09T07:25:08;101937.75;;;22.76;32.86
14293;BME280;62290;59.420;17.842;2022-09-09T07:27:36;101938.44;;;22.80;32.78
14293;BME280;62290;59.420;17.842;2022-09-09T07:30:06;101875.34;;;22.44;32.89
14293;BME280;62290;59.420;17.842;2022-09-09T07:32:36;101929.31;;;22.82;32.80
14293;BME280;62290;59.420;17.842;2022-09-09T07:35:05;101929.31;;;22.82;32.40
14293;BME280;62290;59.420;17.842;2022-09-09T07:37:36;101930.94;;;22.85;32.36
14293;BME280;62290;59.420;17.842;2022-09-09T07:40:05;101935.38;;;22.86;32.51
14293;BME280;62290;59.420;17.842;2022-09-09T07:42:33;101936.13;;;22.88;32.03
14293;BME280;62290;59.420;17.842;2022-09-09T07:45:02;101935.94;;;22.91;32.08
14293;BME280;62290;59.420;17.842;2022-09-09T07:47:30;101921.50;;;22.92;31.80
14293;BME280;62290;59.420;17.842;2022-09-09T07:50:00;101924.97;;;22.94;31.66
14293;BME280;62290;59.420;17.842;2022-09-09T07:52:30;101925.72;;;22.96;31.64
14293;BME280;62290;59.420;17.842;2022-09-09T07:55:02;101922.94;;;22.97;31.72
14293;BME280;62290;59.420;17.842;2022-09-09T07:57:31;101859.28;;;22.57;31.74
14293;BME280;62290;59.420;17.842;2022-09-09T08:00:00;101933.41;;;23.02;31.62
14293;BME280;62290;59.420;17.842;2022-09-09T08:02:38;101932.44;;;23.03;31.34
14293;BME280;62290;59.420;17.842;2022-09-09T08:05:08;101938.56;;;23.05;31.07
14293;BME280;62290;59.420;17.842;2022-09-09T08:07:39;101938.34;;;23.08;31.13
14293;BME280;62290;59.420;17.842;2022-09-09T08:10:07;101947.22;;;23.10;31.03
14293;BME280;62290;59.420;17.842;2022-09-09T08:12:37;101947.97;;;23.12;31.03
14293;BME280;62290;59.420;17.842;2022-09-09T08:15:13;101945.91;;;23.15;30.87
14293;BME280;62290;59.420;17.842;2022-09-09T08:17:42;101960.16;;;23.17;30.94
14293;BME280;62290;59.420;17.842;2022-09-09T08:20:13;101955.41;;;23.21;30.78
14293;BME280;62290;59.420;17.842;2022-09-09T08:22:41;101958.88;;;23.23;30.96
14293;BME280;62290;59.420;17.842;2022-09-09T08:25:11;101960.59;;;23.24;30.82
14293;BME280;62290;59.420;17.842;2022-09-09T08:27:40;101961.34;;;23.26;30.81
14293;BME280;62290;59.420;17.842;2022-09-09T08:30:09;101964.03;;;23.26;30.85
14293;BME280;62290;59.420;17.842;2022-09-09T08:32:39;101957.69;;;23.27;30.73
14293;BME280;62290;59.420;17.842;2022-09-09T08:35:13;101958.56;;;23.27;30.68
14293;BME280;62290;59.420;17.842;2022-09-09T08:37:41;101957.59;;;23.28;30.64
14293;BME280;62290;59.420;17.842;2022-09-09T08:40:17;101958.25;;;23.32;30.77
14293;BME280;62290;59.420;17.842;2022-09-09T08:42:51;101957.31;;;23.33;30.53
14293;BME280;62290;59.420;17.842;2022-09-09T08:45:29;101952.69;;;23.35;30.54
14293;BME280;62290;59.420;17.842;2022-09-09T08:48:13;101951.69;;;23.36;30.49
14293;BME280;62290;59.420;17.842;2022-09-09T08:50:48;101948.94;;;23.38;30.57
14293;BME280;62290;59.420;17.842;2022-09-09T08:53:23;101958.84;;;23.37;30.82
14293;BME280;62290;59.420;17.842;2022-09-09T08:55:58;101954.31;;;23.38;30.81
14293;BME280;62290;59.420;17.842;2022-09-09T08:58:49;101955.94;;;23.40;30.77
14293;BME280;62290;59.420;17.842;2022-09-09T09:01:33;101957.69;;;23.41;30.86
14293;BME280;62290;59.420;17.842;2022-09-09T09:04:11;101947.75;;;23.42;30.83
14293;BME280;62290;59.420;17.842;2022-09-09T09:06:50;101958.44;;;23.43;30.62
14293;BME280;62290;59.420;17.842;2022-09-09T09:09:28;101957.44;;;23.44;30.57
14293;BME280;62290;59.420;17.842;2022-09-09T09:12:01;101949.38;;;23.44;30.63
14293;BME280;62290;59.420;17.842;2022-09-09T09:14:36;101957.44;;;23.44;30.67
14293;BME280;62290;59.420;17.842;2022-09-09T09:17:12;101945.84;;;23.44;30.68
14293;BME280;62290;59.420;17.842;2022-09-09T09:19:43;101961.88;;;23.45;30.87
14293;BME280;62290;59.420;17.842;2022-09-09T09:22:18;101963.63;;;23.46;30.90
14293;BME280;62290;59.420;17.842;2022-09-09T09:24:52;101960.06;;;23.46;30.81
14293;BME280;62290;59.420;17.842;2022-09-09T09:27:30;101953.69;;;23.47;30.90
14293;BME280;62290;59.420;17.842;2022-09-09T09:30:01;101961.69;;;23.48;30.94
14293;BME280;62290;59.420;17.842;2022-09-09T09:32:56;101941.75;;;23.38;30.83
14293;BME280;62290;59.420;17.842;2022-09-09T09:35:26;101955.31;;;23.49;30.84
14293;BME280;62290;59.420;17.842;2022-09-09T09:37:56;101951.66;;;23.50;30.89
14293;BME280;62290;59.420;17.842;2022-09-09T09:40:50;101953.41;;;23.51;30.77
14293;BME280;62290;59.420;17.842;2022-09-09T09:43:22;101956.09;;;23.51;30.76
14293;BME280;62290;59.420;17.842;2022-09-09T09:45:52;101949.84;;;23.51;31.59
14293;BME280;62290;59.420;17.842;2022-09-09T09:48:39;101946.16;;;23.52;32.09
14293;BME280;62290;59.420;17.842;2022-09-09T09:51:09;101939.75;;;23.54;32.70
14293;BME280;62290;59.420;17.842;2022-09-09T09:53:40;101944.25;;;23.54;32.95
14293;BME280;62290;59.420;17.842;2022-09-09T09:56:12;101937.06;;;23.54;33.66
14293;BME280;62290;59.420;17.842;2022-09-09T09:58:49;101910.09;;;23.42;33.65
14293;BME280;62290;59.420;17.842;2022-09-09T10:01:23;101938.69;;;23.57;33.29
14293;BME280;62290;59.420;17.842;2022-09-09T10:03:53;101922.72;;;23.54;33.10
14293;BME280;62290;59.420;17.842;2022-09-09T10:06:32;101927.78;;;23.58;32.92
14293;BME280;62290;59.420;17.842;2022-09-09T10:09:03;101941.13;;;23.60;32.70
14293;BME280;62290;59.420;17.842;2022-09-09T10:11:43;101924.16;;;23.59;32.56
14293;BME280;62290;59.420;17.842;2022-09-09T10:14:19;101930.47;;;23.58;32.57
14293;BME280;62290;59.420;17.842;2022-09-09T10:17:01;101924.91;;;23.61;32.29
14293;BME280;62290;59.420;17.842;2022-09-09T10:19:32;101924.97;;;23.60;32.24
14293;BME280;62290;59.420;17.842;2022-09-09T10:22:16;101914.88;;;23.63;31.78
14293;BME280;62290;59.420;17.842;2022-09-09T10:25:19;101906.06;;;23.61;31.74
14293;BME280;62290;59.420;17.842;2022-09-09T10:27:59;101916.06;;;23.59;31.45
14293;BME280;62290;59.420;17.842;2022-09-09T10:30:37;101936.63;;;23.60;31.38
14293;BME280;62290;59.420;17.842;2022-09-09T10:33:16;101917.78;;;23.60;31.31
14293;BME280;62290;59.420;17.842;2022-09-09T10:35:56;101924.03;;;23.61;31.46
14293;BME280;62290;59.420;17.842;2022-09-09T10:38:30;101928.47;;;23.62;31.43
14293;BME280;62290;59.420;17.842;2022-09-09T10:41:16;101929.28;;;23.62;31.25
14293;BME280;62290;59.420;17.842;2022-09-09T10:44:17;101921.00;;;23.65;31.16
14293;BME280;62290;59.420;17.842;2022-09-09T10:47:01;101927.47;;;23.63;31.30
14293;BME280;62290;59.420;17.842;2022-09-09T10:49:52;101914.22;;;23.60;31.18
14293;BME280;62290;59.420;17.842;2022-09-09T10:52:29;101922.75;;;23.66;31.06
14293;BME280;62290;59.420;17.842;2022-09-09T10:55:02;101909.16;;;23.68;30.79
14293;BME280;62290;59.420;17.842;2022-09-09T10:57:39;101919.06;;;23.67;30.43
14293;BME280;62290;59.420;17.842;2022-09-09T11:00:16;101912.84;;;23.67;30.47
14293;BME280;62290;59.420;17.842;2022-09-09T11:02:48;101914.69;;;23.66;30.39
14293;BME280;62290;59.420;17.842;2022-09-09T11:05:20;101920.16;;;23.65;30.53
14293;BME280;62290;59.420;17.842;2022-09-09T11:07:53;101917.44;;;23.65;30.70
14293;BME280;62290;59.420;17.842;2022-09-09T11:10:28;101919.31;;;23.64;30.94
14293;BME280;62290;59.420;17.842;2022-09-09T11:13:03;101916.63;;;23.64;30.96
14293;BME280;62290;59.420;17.842;2022-09-09T11:15:36;101916.72;;;23.63;30.97
14293;BME280;62290;59.420;17.842;2022-09-09T11:18:12;101911.22;;;23.64;30.94
14293;BME280;62290;59.420;17.842;2022-09-09T11:20:42;101907.69;;;23.64;30.90
14293;BME280;62290;59.420;17.842;2022-09-09T11:23:14;101884.28;;;23.52;30.89
14293;BME280;62290;59.420;17.842;2022-09-09T11:25:48;101903.16;;;23.64;30.93
14293;BME280;62290;59.420;17.842;2022-09-09T11:28:35;101904.88;;;23.65;30.85
14293;BME280;62290;59.420;17.842;2022-09-09T11:31:27;101904.13;;;23.63;30.89
14293;BME280;62290;59.420;17.842;2022-09-09T11:34:11;101908.75;;;23.61;31.06
14293;BME280;62290;59.420;17.842;2022-09-09T11:36:58;101907.88;;;23.61;30.84
14293;BME280;62290;59.420;17.842;2022-09-09T11:39:53;101897.25;;;23.59;30.85
14293;BME280;62290;59.420;17.842;2022-09-09T11:42:24;101903.56;;;23.58;30.56
14293;BME280;62290;59.420;17.842;2022-09-09T11:44:53;101906.16;;;23.60;30.78
14293;BME280;62290;59.420;17.842;2022-09-09T11:47:24;101873.50;;;23.52;30.83
14293;BME280;62290;59.420;17.842;2022-09-09T11:50:07;101894.31;;;23.62;30.70
14293;BME280;62290;59.420;17.842;2022-09-09T11:52:37;101888.09;;;23.62;30.79
14293;BME280;62290;59.420;17.842;2022-09-09T11:55:09;101879.91;;;23.63;30.83
14293;BME280;62290;59.420;17.842;2022-09-09T11:57:39;101886.22;;;23.62;30.92
14293;BME280;62290;59.420;17.842;2022-09-09T12:00:31;101889.59;;;23.66;30.78
14293;BME280;62290;59.420;17.842;2022-09-09T12:03:00;101891.41;;;23.65;30.83
14293;BME280;62290;59.420;17.842;2022-09-09T12:05:36;101884.09;;;23.67;30.61
14293;BME280;62290;59.420;17.842;2022-09-09T12:08:08;101888.63;;;23.67;30.66
14293;BME280;62290;59.420;17.842;2022-09-09T12:10:39;101855.66;;;23.51;30.61
14293;BME280;62290;59.420;17.842;2022-09-09T12:13:14;101882.38;;;23.66;30.67
14293;BME280;62290;59.420;17.842;2022-09-09T12:15:49;101886.78;;;23.67;30.62
14293;BME280;62290;59.420;17.842;2022-09-09T12:18:22;101885.81;;;23.68;30.55
14293;BME280;62290;59.420;17.842;2022-09-09T12:20:57;101888.50;;;23.68;30.69
14293;BME280;62290;59.420;17.842;2022-09-09T12:23:38;101873.22;;;23.69;30.74
14293;BME280;62290;59.420;17.842;2022-09-09T12:26:36;101881.38;;;23.67;30.91
14293;BME280;62290;59.420;17.842;2022-09-09T12:29:16;101878.69;;;23.67;31.07
14293;BME280;62290;59.420;17.842;2022-09-09T12:31:55;101868.81;;;23.68;30.75
14293;BME280;62290;59.420;17.842;2022-09-09T12:34:34;101873.31;;;23.67;30.96
14293;BME280;62290;59.420;17.842;2022-09-09T12:37:08;101884.09;;;23.67;30.92
14293;BME280;62290;59.420;17.842;2022-09-09T12:39:44;101873.31;;;23.67;30.98
14293;BME280;62290;59.420;17.842;2022-09-09T12:42:17;101878.69;;;23.67;31.05
14293;BME280;62290;59.420;17.842;2022-09-09T12:44:53;101881.50;;;23.66;31.06
14293;BME280;62290;59.420;17.842;2022-09-09T12:47:36;101875.25;;;23.65;31.12
14293;BME280;62290;59.420;17.842;2022-09-09T12:50:16;101869.25;;;23.62;30.93
14293;BME280;62290;59.420;17.842;2022-09-09T12:52:45;101869.34;;;23.60;31.05
14293;BME280;62290;59.420;17.842;2022-09-09T12:55:18;101872.03;;;23.60;31.32
14293;BME280;62290;59.420;17.842;2022-09-09T12:57:48;101866.75;;;23.59;31.08
14293;BME280;62290;59.420;17.842;2022-09-09T13:00:20;101867.72;;;23.58;31.29
14293;BME280;62290;59.420;17.842;2022-09-09T13:02:52;101833.06;;;23.41;31.20
14293;BME280;62290;59.420;17.842;2022-09-09T13:05:22;101849.41;;;23.50;31.21
14293;BME280;62290;59.420;17.842;2022-09-09T13:07:51;101868.91;;;23.54;31.42
14293;BME280;62290;59.420;17.842;2022-09-09T13:10:24;101867.84;;;23.56;31.32
14293;BME280;62290;59.420;17.842;2022-09-09T13:13:15;101859.09;;;23.53;31.40
14293;BME280;62290;59.420;17.842;2022-09-09T13:15:49;101866.22;;;23.54;31.52